createdAt,value
2023-04-08T00:01:05.084Z,21.77
2023-04-08T00:03:32.557Z,21.30
2023-04-08T00:06:02.588Z,21.35
2023-04-08T00:08:30.662Z,20.83
2023-04-08T00:10:57.923Z,20.30
2023-04-08T00:13:25.406Z,20.83
2023-04-08T00:15:52.631Z,19.77
2023-04-08T00:18:19.947Z,21.48
2023-04-08T00:20:47.308Z,20.23
2023-04-08T00:23:14.543Z,22.77
2023-04-08T00:25:41.752Z,20.23
2023-04-08T00:28:09.141Z,21.95
2023-04-08T00:30:36.449Z,19.55
2023-04-08T00:33:04.432Z,21.55
2023-04-08T00:35:31.829Z,20.27
2023-04-08T00:37:59.054Z,19.77
2023-04-08T00:40:26.308Z,21.08
2023-04-08T00:42:54.077Z,20.38
2023-04-08T00:45:21.605Z,21.23
2023-04-08T00:47:52.563Z,20.83
2023-04-08T00:50:20.541Z,21.73
2023-04-08T00:52:47.965Z,20.02
2023-04-08T00:55:15.415Z,19.58
2023-04-08T00:57:42.963Z,20.92
2023-04-08T01:00:10.717Z,20.98
2023-04-08T01:02:48.549Z,22.45
2023-04-08T01:05:21.322Z,20.98
2023-04-08T01:07:49.680Z,17.80
2023-04-08T01:10:16.895Z,13.07
2023-04-08T01:12:49.074Z,12.38
2023-04-08T01:15:16.568Z,11.27
2023-04-08T01:17:44.344Z,13.68
2023-04-08T01:20:12.127Z,15.18
2023-04-08T01:22:47.129Z,14.20
2023-04-08T01:25:19.494Z,15.63
2023-04-08T01:27:47.288Z,17.00
2023-04-08T01:30:14.922Z,21.23
2023-04-08T01:32:44.532Z,19.23
2023-04-08T01:35:12.032Z,21.42
2023-04-08T01:37:39.738Z,26.02
2023-04-08T01:40:08.692Z,22.30
2023-04-08T01:42:38.750Z,19.63
2023-04-08T01:45:06.951Z,20.05
2023-04-08T01:47:35.252Z,17.90
2023-04-08T01:50:03.250Z,17.92
2023-04-08T01:52:31.041Z,19.70
2023-04-08T01:54:58.301Z,19.80
2023-04-08T01:57:28.002Z,22.17
2023-04-08T01:59:58.025Z,19.58
2023-04-08T02:02:27.126Z,18.83
2023-04-08T02:04:54.919Z,19.25
2023-04-08T02:07:22.322Z,19.60
2023-04-08T02:09:49.614Z,20.88
2023-04-08T02:12:16.894Z,18.80
2023-04-08T02:14:44.410Z,23.80
2023-04-08T02:17:44.472Z,21.98
2023-04-08T02:20:16.625Z,23.73
2023-04-08T02:22:54.118Z,24.20
2023-04-08T02:25:24.359Z,24.77
2023-04-08T02:27:53.078Z,22.50
2023-04-08T02:30:20.593Z,23.05
2023-04-08T02:32:48.615Z,27.20
2023-04-08T02:35:16.597Z,25.00
2023-04-08T02:37:45.260Z,25.88
2023-04-08T02:40:25.758Z,27.52
2023-04-08T02:42:53.057Z,24.65
2023-04-08T02:45:20.705Z,27.40
2023-04-08T02:47:50.379Z,25.08
2023-04-08T02:50:17.608Z,26.45
2023-04-08T02:52:45.048Z,28.92
2023-04-08T02:55:12.375Z,28.40
2023-04-08T02:57:40.489Z,30.00
2023-04-08T03:00:08.392Z,28.58
2023-04-08T03:02:35.954Z,30.85
2023-04-08T03:05:05.375Z,28.15
2023-04-08T03:09:59.750Z,31.00
2023-04-08T03:12:29.807Z,28.30
2023-04-08T03:14:57.006Z,28.48
2023-04-08T03:17:24.264Z,29.50
2023-04-08T03:19:51.558Z,27.95
2023-04-08T03:22:18.781Z,28.60
2023-04-08T03:24:46.238Z,28.17
2023-04-08T03:27:14.173Z,25.90
2023-04-08T03:29:41.474Z,25.13
2023-04-08T03:32:08.872Z,25.15
2023-04-08T03:34:36.129Z,28.90
2023-04-08T03:37:03.514Z,24.27
2023-04-08T03:39:31.348Z,26.02
2023-04-08T03:42:00.824Z,24.85
2023-04-08T03:44:28.177Z,23.95
2023-04-08T03:46:55.581Z,27.35
2023-04-08T03:49:22.827Z,30.77
2023-04-08T03:51:50.123Z,28.10
2023-04-08T03:54:17.407Z,27.67
2023-04-08T03:56:44.641Z,29.15
2023-04-08T03:59:11.855Z,26.55
2023-04-08T04:01:40.649Z,28.63
2023-04-08T04:04:09.219Z,32.28
2023-04-08T04:06:36.647Z,26.73
2023-04-08T04:09:03.944Z,27.63
2023-04-08T04:11:31.126Z,27.80
2023-04-08T04:13:58.342Z,26.42
2023-04-08T04:16:25.790Z,27.55
2023-04-08T04:18:54.019Z,24.77
2023-04-08T04:21:21.973Z,22.40
2023-04-08T04:23:49.193Z,22.67
2023-04-08T04:26:16.483Z,22.13
2023-04-08T04:28:43.667Z,21.70
2023-04-08T04:31:18.718Z,18.95
2023-04-08T04:33:47.244Z,20.52
2023-04-08T04:36:14.934Z,17.00
2023-04-08T04:38:45.384Z,20.20
2023-04-08T04:41:12.713Z,20.35
2023-04-08T04:43:39.948Z,19.92
2023-04-08T04:46:09.013Z,19.73
2023-04-08T04:48:36.438Z,19.50
2023-04-08T04:51:03.745Z,18.90
2023-04-08T04:53:31.685Z,18.40
2023-04-08T04:56:01.281Z,16.42
2023-04-08T04:58:28.805Z,17.65
2023-04-08T05:00:56.389Z,17.13
2023-04-08T05:03:23.816Z,16.58
2023-04-08T05:05:54.859Z,17.85
2023-04-08T05:08:22.195Z,20.77
2023-04-08T05:10:52.307Z,17.98
2023-04-08T05:13:19.721Z,18.15
2023-04-08T05:15:47.041Z,16.42
2023-04-08T05:18:14.454Z,17.95
2023-04-08T05:20:42.884Z,17.58
2023-04-08T05:23:10.196Z,18.60
2023-04-08T05:25:37.414Z,15.32
2023-04-08T05:28:04.942Z,18.13
2023-04-08T05:30:32.201Z,19.42
2023-04-08T05:33:00.608Z,17.02
2023-04-08T05:35:28.339Z,16.48
2023-04-08T05:37:55.754Z,18.05
2023-04-08T05:40:23.059Z,17.23
2023-04-08T05:42:50.375Z,18.48
2023-04-08T05:45:17.652Z,19.50
2023-04-08T05:47:45.033Z,21.58
2023-04-08T05:50:12.395Z,19.50
2023-04-08T05:52:43.669Z,20.95
2023-04-08T05:55:11.290Z,17.92
2023-04-08T05:57:38.561Z,18.08
2023-04-08T06:00:08.137Z,18.58
2023-04-08T06:02:37.607Z,24.27
2023-04-08T06:05:05.882Z,22.55
2023-04-08T06:07:33.951Z,22.30
2023-04-08T06:10:01.229Z,25.98
2023-04-08T06:12:28.557Z,28.02
2023-04-08T06:14:56.314Z,24.75
2023-04-08T06:17:23.596Z,26.27
2023-04-08T06:19:50.890Z,25.92
2023-04-08T06:22:18.157Z,25.98
2023-04-08T06:24:45.330Z,27.30
2023-04-08T06:27:13.005Z,27.85
2023-04-08T06:29:42.743Z,30.65
2023-04-08T06:32:10.626Z,31.02
2023-04-08T06:34:38.267Z,32.20
2023-04-08T06:37:06.409Z,32.03
2023-04-08T06:39:34.118Z,33.00
2023-04-08T06:42:01.661Z,34.35
2023-04-08T06:44:58.654Z,32.47
2023-04-08T06:47:26.156Z,29.90
2023-04-08T06:49:54.366Z,30.27
2023-04-08T06:52:21.825Z,29.02
2023-04-08T06:54:49.054Z,29.90
2023-04-08T06:57:16.287Z,30.55
2023-04-08T06:59:43.477Z,32.28
2023-04-08T07:02:10.703Z,29.90
2023-04-08T07:04:37.908Z,26.00
2023-04-08T07:07:05.140Z,27.77
2023-04-08T07:09:32.575Z,28.83
2023-04-08T07:11:59.882Z,30.20
2023-04-08T07:14:27.195Z,28.02
2023-04-08T07:16:54.596Z,25.33
2023-04-08T07:19:22.681Z,24.65
2023-04-08T07:21:49.977Z,22.92
2023-04-08T07:24:17.364Z,23.42
2023-04-08T07:26:44.595Z,21.42
2023-04-08T07:29:11.817Z,18.92
2023-04-08T07:31:39.007Z,20.40
2023-04-08T07:34:06.216Z,20.83
2023-04-08T07:36:33.494Z,19.92
2023-04-08T07:39:00.909Z,18.50
2023-04-08T07:41:28.316Z,17.65
2023-04-08T07:43:56.154Z,17.92
2023-04-08T07:46:23.419Z,18.08
2023-04-08T07:48:52.121Z,17.55
2023-04-08T07:51:20.424Z,17.67
2023-04-08T07:53:48.308Z,16.90
2023-04-08T07:56:16.303Z,18.02
2023-04-08T07:58:43.953Z,18.02
2023-04-08T08:01:18.979Z,17.05
2023-04-08T08:03:47.857Z,15.57
2023-04-08T08:06:15.784Z,16.75
2023-04-08T08:08:43.139Z,14.10
2023-04-08T08:11:10.475Z,15.70
2023-04-08T08:13:37.769Z,14.10
2023-04-08T08:16:08.971Z,13.73
2023-04-08T08:18:37.002Z,12.90
2023-04-08T08:21:04.556Z,13.55
2023-04-08T08:23:31.901Z,13.93
2023-04-08T08:26:11.944Z,13.52
2023-04-08T08:28:39.618Z,13.20
2023-04-08T08:31:07.041Z,13.50
2023-04-08T08:33:34.630Z,13.57
2023-04-08T08:36:02.098Z,13.57
2023-04-08T08:38:29.377Z,13.85
2023-04-08T08:40:58.401Z,13.65
2023-04-08T08:43:26.210Z,13.98
2023-04-08T08:45:53.698Z,12.45
2023-04-08T08:48:21.270Z,13.68
2023-04-08T08:50:48.617Z,13.15
2023-04-08T08:53:16.147Z,12.57
2023-04-08T08:58:13.676Z,11.95
2023-04-08T09:00:42.511Z,13.73
2023-04-08T09:03:17.048Z,12.60
2023-04-08T09:05:55.443Z,13.18
2023-04-08T09:08:26.202Z,13.07
2023-04-08T09:10:54.135Z,14.00
2023-04-08T09:13:23.632Z,12.13
2023-04-08T09:16:05.173Z,11.85
2023-04-08T09:18:32.887Z,12.40
2023-04-08T09:21:01.467Z,11.48
2023-04-08T09:23:38.146Z,11.68
2023-04-08T09:26:09.415Z,12.90
2023-04-08T09:28:36.791Z,12.63
2023-04-08T09:31:19.693Z,11.77
2023-04-08T09:33:48.739Z,11.52
2023-04-08T09:36:17.189Z,12.45
2023-04-08T09:38:44.595Z,20.90
2023-04-08T09:41:14.899Z,10.95
2023-04-08T09:43:44.088Z,11.20
2023-04-08T09:48:41.415Z,13.13
2023-04-08T09:51:09.348Z,10.93
2023-04-08T09:53:44.330Z,11.68
2023-04-08T09:56:15.363Z,11.18
2023-04-08T09:58:47.909Z,12.40
2023-04-08T10:01:16.462Z,10.90
2023-04-08T10:03:54.654Z,10.95
2023-04-08T10:06:24.133Z,10.27
2023-04-08T10:08:52.744Z,10.77
2023-04-08T10:11:20.505Z,10.57
2023-04-08T10:13:52.246Z,9.60
2023-04-08T10:16:22.415Z,11.52
2023-04-08T10:18:53.490Z,10.73
2023-04-08T10:21:51.510Z,11.85
2023-04-08T10:24:24.146Z,12.05
2023-04-08T10:26:52.778Z,11.10
2023-04-08T10:29:21.409Z,10.40
2023-04-08T10:31:50.690Z,10.60
2023-04-08T10:34:18.560Z,10.48
2023-04-08T10:36:46.280Z,10.48
2023-04-08T10:39:14.725Z,10.80
2023-04-08T10:41:45.812Z,9.73
2023-04-08T10:44:31.124Z,10.65
2023-04-08T10:46:58.438Z,10.90
2023-04-08T10:49:33.339Z,10.63
2023-04-08T10:52:00.811Z,10.65
2023-04-08T10:54:28.483Z,10.02
2023-04-08T10:56:55.772Z,10.25
2023-04-08T10:59:30.647Z,10.15
2023-04-08T11:01:58.467Z,10.25
2023-04-08T11:04:26.417Z,10.13
2023-04-08T11:06:54.122Z,10.05
2023-04-08T11:09:21.428Z,9.85
2023-04-08T11:11:48.720Z,9.25
2023-04-08T11:14:19.592Z,9.27
2023-04-08T11:16:46.849Z,11.00
2023-04-08T11:19:14.969Z,9.85
2023-04-08T11:21:42.314Z,9.50
2023-04-08T11:24:13.389Z,10.23
2023-04-08T11:26:41.647Z,9.45
2023-04-08T11:29:14.125Z,9.50
2023-04-08T11:31:42.218Z,8.98
2023-04-08T11:34:09.622Z,9.20
2023-04-08T11:36:37.545Z,9.52
2023-04-08T11:39:08.791Z,8.45
2023-04-08T11:41:40.458Z,9.48
2023-04-08T11:44:08.098Z,9.82
2023-04-08T11:46:36.207Z,9.55
2023-04-08T11:49:07.968Z,8.80
2023-04-08T11:51:36.260Z,8.35
2023-04-08T11:54:07.419Z,8.60
2023-04-08T11:56:45.915Z,8.70
2023-04-08T11:59:13.643Z,9.65
2023-04-08T12:01:40.907Z,12.80
2023-04-08T12:04:10.404Z,12.85
2023-04-08T12:06:37.829Z,10.60
2023-04-08T12:09:05.070Z,11.13
2023-04-08T12:11:32.425Z,9.80
2023-04-08T12:13:59.650Z,8.70
2023-04-08T12:16:27.268Z,8.20
2023-04-08T12:18:54.632Z,7.75
2023-04-08T12:21:21.926Z,7.65
2023-04-08T12:23:49.485Z,7.95
2023-04-08T12:26:17.247Z,6.60
2023-04-08T12:28:44.514Z,7.25
2023-04-08T12:31:11.768Z,6.63
2023-04-08T12:33:39.037Z,7.05
2023-04-08T12:36:06.454Z,6.93
2023-04-08T12:38:33.795Z,7.45
2023-04-08T12:41:01.100Z,7.07
2023-04-08T12:43:28.380Z,7.07
2023-04-08T12:45:55.572Z,7.40
2023-04-08T12:48:22.838Z,7.07
2023-04-08T12:50:50.417Z,6.93
2023-04-08T12:53:18.137Z,7.65
2023-04-08T12:55:46.417Z,8.40
2023-04-08T12:58:16.892Z,7.80
2023-04-08T13:00:46.683Z,7.05
2023-04-08T13:03:17.458Z,7.20
2023-04-08T13:05:45.149Z,7.80
2023-04-08T13:08:12.528Z,8.00
2023-04-08T13:10:39.841Z,7.80
2023-04-08T13:13:07.109Z,8.48
2023-04-08T13:15:34.453Z,8.30
2023-04-08T13:18:01.826Z,8.50
2023-04-08T13:20:29.129Z,7.72
2023-04-08T13:22:56.406Z,9.32
2023-04-08T13:25:23.873Z,8.30
2023-04-08T13:27:51.073Z,6.72
2023-04-08T13:30:18.536Z,7.03
2023-04-08T13:32:45.892Z,7.53
2023-04-08T13:35:13.174Z,7.50
2023-04-08T13:37:40.389Z,7.75
2023-04-08T13:40:08.803Z,7.35
2023-04-08T13:42:36.174Z,6.60
2023-04-08T13:45:03.465Z,6.63
2023-04-08T13:47:31.158Z,7.30
2023-04-08T13:49:58.481Z,6.43
2023-04-08T13:52:25.720Z,6.20
2023-04-08T13:54:53.057Z,6.32
2023-04-08T13:57:20.305Z,6.13
2023-04-08T13:59:47.593Z,7.00
2023-04-08T14:02:14.913Z,6.20
2023-04-08T14:04:43.237Z,5.70
2023-04-08T14:07:10.658Z,6.70
2023-04-08T14:09:37.909Z,7.22
2023-04-08T14:12:05.797Z,7.88
2023-04-08T14:14:33.036Z,5.95
2023-04-08T14:17:00.857Z,6.18
2023-04-08T14:19:28.373Z,6.90
2023-04-08T14:21:55.683Z,6.45
2023-04-08T14:24:22.909Z,6.80
2023-04-08T14:26:50.401Z,6.03
2023-04-08T14:29:17.734Z,6.22
2023-04-08T14:31:45.018Z,5.75
2023-04-08T14:34:12.293Z,4.78
2023-04-08T14:36:39.563Z,5.35
2023-04-08T14:39:06.871Z,6.07
2023-04-08T14:41:34.044Z,6.00
2023-04-08T14:44:01.355Z,6.05
2023-04-08T14:46:29.148Z,5.57
2023-04-08T14:48:56.879Z,4.90
2023-04-08T14:51:24.138Z,5.63
2023-04-08T14:53:51.372Z,7.10
2023-04-08T14:56:18.608Z,7.15
2023-04-08T14:58:45.889Z,9.32
2023-04-08T15:01:13.187Z,6.90
2023-04-08T15:03:40.526Z,6.50
2023-04-08T15:06:08.031Z,5.25
2023-04-08T15:08:35.616Z,5.20
2023-04-08T15:11:02.870Z,5.43
2023-04-08T15:13:30.332Z,7.13
2023-04-08T15:15:57.626Z,7.75
2023-04-08T15:18:24.957Z,10.32
2023-04-08T15:20:52.296Z,8.07
2023-04-08T15:23:19.535Z,9.68
2023-04-08T15:25:47.078Z,9.30
2023-04-08T15:28:14.360Z,7.78
2023-04-08T15:30:41.718Z,6.40
2023-04-08T15:33:08.980Z,6.63
2023-04-08T15:35:38.474Z,9.32
2023-04-08T15:38:05.813Z,7.35
2023-04-08T15:40:36.003Z,6.95
2023-04-08T15:43:03.903Z,7.60
2023-04-08T15:45:31.811Z,12.93
2023-04-08T15:47:59.649Z,12.27
2023-04-08T15:50:29.898Z,9.73
2023-04-08T15:52:57.172Z,12.40
2023-04-08T15:55:24.507Z,10.85
2023-04-08T15:57:54.144Z,10.95
2023-04-08T16:00:21.450Z,11.40
2023-04-08T16:02:48.834Z,11.85
2023-04-08T16:05:16.499Z,11.68
2023-04-08T16:07:43.722Z,12.70
2023-04-08T16:10:11.234Z,14.05
2023-04-08T16:12:38.556Z,13.50
2023-04-08T16:15:06.086Z,15.23
2023-04-08T16:17:33.403Z,14.85
2023-04-08T16:20:00.661Z,15.90
2023-04-08T16:22:28.222Z,15.25
2023-04-08T16:24:55.469Z,14.63
2023-04-08T16:27:22.889Z,14.73
2023-04-08T16:29:50.220Z,12.82
2023-04-08T16:32:17.503Z,16.67
2023-04-08T16:34:45.097Z,16.17
2023-04-08T16:37:14.355Z,15.85
2023-04-08T16:39:42.332Z,15.80
2023-04-08T16:42:10.089Z,15.50
2023-04-08T16:44:37.632Z,15.90
2023-04-08T16:47:04.883Z,15.23
2023-04-08T16:49:32.073Z,15.60
2023-04-08T16:51:59.310Z,15.35
2023-04-08T16:54:26.533Z,15.13
2023-04-08T16:56:53.791Z,16.40
2023-04-08T16:59:21.104Z,16.80
2023-04-08T17:01:48.424Z,15.75
2023-04-08T17:04:15.896Z,17.25
2023-04-08T17:06:43.269Z,16.73
2023-04-08T17:09:11.236Z,16.67
2023-04-08T17:11:38.462Z,15.38
2023-04-08T17:14:05.794Z,14.82
2023-04-08T17:16:33.292Z,17.52
2023-04-08T17:19:00.567Z,16.17
2023-04-08T17:21:28.082Z,16.10
2023-04-08T17:23:56.699Z,16.48
2023-04-08T17:26:23.942Z,15.82
2023-04-08T17:28:51.169Z,15.75
2023-04-08T17:31:18.486Z,15.02
2023-04-08T17:33:45.840Z,14.55
2023-04-08T17:36:13.356Z,15.23
2023-04-08T17:38:41.179Z,15.02
2023-04-08T17:41:11.311Z,16.02
2023-04-08T17:43:38.683Z,15.52
2023-04-08T17:46:06.022Z,15.98
2023-04-08T17:48:33.230Z,15.57
2023-04-08T17:51:04.122Z,15.55
2023-04-08T17:53:32.150Z,18.35
2023-04-08T17:55:59.598Z,18.70
2023-04-08T17:58:27.162Z,18.55
2023-04-08T18:00:54.457Z,18.88
2023-04-08T18:03:21.890Z,18.00
2023-04-08T18:05:49.381Z,15.98
2023-04-08T18:08:16.775Z,16.13
2023-04-08T18:10:45.218Z,17.75
2023-04-08T18:13:14.139Z,17.95
2023-04-08T18:15:41.444Z,17.02
2023-04-08T18:18:08.690Z,17.83
2023-04-08T18:20:36.612Z,16.35
2023-04-08T18:23:04.469Z,16.58
2023-04-08T18:25:32.632Z,17.98
2023-04-08T18:28:00.037Z,17.05
2023-04-08T18:30:27.602Z,17.23
2023-04-08T18:32:54.904Z,20.00
2023-04-08T18:35:22.228Z,16.98
2023-04-08T18:37:49.634Z,17.98
2023-04-08T18:40:17.699Z,17.80
2023-04-08T18:42:45.186Z,17.95
2023-04-08T18:45:12.540Z,19.35
2023-04-08T18:47:39.842Z,19.10
2023-04-08T18:50:07.789Z,18.73
2023-04-08T18:52:35.093Z,20.20
2023-04-08T18:55:02.737Z,20.92
2023-04-08T18:57:29.987Z,20.23
2023-04-08T18:59:57.196Z,22.23
2023-04-08T19:02:24.532Z,21.55
2023-04-08T19:04:52.184Z,20.10
2023-04-08T19:07:19.441Z,20.60
2023-04-08T19:09:46.817Z,20.38
2023-04-08T19:12:14.068Z,19.17
2023-04-08T19:14:42.106Z,20.00
2023-04-08T19:17:09.826Z,20.08
2023-04-08T19:19:37.141Z,20.65
2023-04-08T19:22:06.022Z,18.88
2023-04-08T19:24:33.697Z,20.17
2023-04-08T19:27:01.209Z,20.27
2023-04-08T19:29:32.824Z,18.58
2023-04-08T19:32:00.153Z,20.00
2023-04-08T19:34:27.431Z,20.88
2023-04-08T19:36:54.874Z,19.95
2023-04-08T19:39:23.554Z,19.42
2023-04-08T19:41:52.686Z,18.75
2023-04-08T19:44:20.011Z,19.20
2023-04-08T19:46:47.650Z,20.15
2023-04-08T19:49:14.940Z,16.83
2023-04-08T19:51:42.200Z,17.98
2023-04-08T19:54:09.431Z,19.15
2023-04-08T19:56:37.105Z,19.98
2023-04-08T19:59:04.322Z,18.90
2023-04-08T20:01:35.649Z,19.08
2023-04-08T20:04:03.251Z,19.48
2023-04-08T20:06:30.514Z,20.35
2023-04-08T20:09:05.128Z,20.27
2023-04-08T20:11:32.837Z,18.23
2023-04-08T20:14:00.118Z,19.27
2023-04-08T20:16:27.644Z,19.25
2023-04-08T20:18:54.944Z,19.85
2023-04-08T20:21:22.481Z,19.40
2023-04-08T20:23:50.524Z,19.25
2023-04-08T20:26:18.016Z,18.80
2023-04-08T20:28:46.107Z,19.30
2023-04-08T20:31:14.300Z,21.58
2023-04-08T20:33:45.441Z,22.25
2023-04-08T20:36:13.575Z,20.25
2023-04-08T20:38:42.444Z,21.25
2023-04-08T20:41:09.960Z,19.98
2023-04-08T20:43:37.362Z,20.23
2023-04-08T20:46:04.648Z,21.30
2023-04-08T20:48:33.151Z,19.85
2023-04-08T20:51:00.463Z,19.45
2023-04-08T20:53:28.098Z,20.80
2023-04-08T20:55:55.423Z,20.05
2023-04-08T20:58:22.694Z,21.02
2023-04-08T21:00:49.961Z,20.80
2023-04-08T21:03:17.462Z,20.70
2023-04-08T21:05:44.829Z,21.50
2023-04-08T21:08:12.107Z,20.80
2023-04-08T21:10:39.351Z,21.02
2023-04-08T21:13:06.836Z,20.85
2023-04-08T21:15:34.169Z,19.95
2023-04-08T21:18:01.549Z,21.92
2023-04-08T21:20:28.920Z,20.20
2023-04-08T21:22:56.228Z,20.48
2023-04-08T21:25:24.842Z,19.75
2023-04-08T21:27:52.068Z,20.73
2023-04-08T21:30:21.245Z,20.52
2023-04-08T21:35:15.988Z,23.55
2023-04-08T21:37:43.233Z,20.63
2023-04-08T21:40:10.657Z,21.05
2023-04-08T21:42:37.956Z,22.13
2023-04-08T21:45:06.371Z,20.83
2023-04-08T21:47:33.739Z,21.63
2023-04-08T21:50:01.072Z,21.40
2023-04-08T21:52:28.410Z,24.05
2023-04-08T21:54:55.633Z,20.98
2023-04-08T21:57:23.337Z,23.27
2023-04-08T21:59:50.697Z,20.92
2023-04-08T22:02:18.052Z,21.60
2023-04-08T22:04:45.306Z,21.73
2023-04-08T22:07:12.714Z,21.25
2023-04-08T22:09:40.324Z,21.23
2023-04-08T22:12:07.585Z,22.25
2023-04-08T22:14:34.830Z,22.45
2023-04-08T22:17:02.115Z,22.35
2023-04-08T22:19:29.353Z,23.85
2023-04-08T22:21:56.603Z,22.42
2023-04-08T22:24:23.927Z,22.05
2023-04-08T22:26:53.427Z,23.10
2023-04-08T22:29:20.813Z,25.88
2023-04-08T22:31:48.060Z,23.50
2023-04-08T22:34:15.672Z,24.42
2023-04-08T22:36:43.016Z,23.75
2023-04-08T22:39:10.518Z,24.02
2023-04-08T22:41:37.804Z,23.45
2023-04-08T22:44:05.029Z,25.25
2023-04-08T22:46:32.329Z,24.38
2023-04-08T22:48:59.652Z,25.70
2023-04-08T22:51:26.912Z,24.63
2023-04-08T22:53:54.215Z,24.58
2023-04-08T22:56:21.521Z,26.00
2023-04-08T22:58:48.770Z,23.73
2023-04-08T23:01:17.368Z,25.10
2023-04-08T23:03:45.430Z,24.02
2023-04-08T23:06:12.687Z,25.88
2023-04-08T23:08:40.038Z,25.15
2023-04-08T23:11:07.642Z,24.83
2023-04-08T23:13:35.277Z,26.85
2023-04-08T23:16:02.848Z,25.13
2023-04-08T23:18:30.191Z,24.38
2023-04-08T23:20:58.370Z,27.73
2023-04-08T23:23:26.057Z,24.00
2023-04-08T23:25:55.714Z,28.20
2023-04-08T23:28:23.465Z,25.58
2023-04-08T23:30:50.928Z,27.42
2023-04-08T23:33:18.157Z,25.08
2023-04-08T23:35:45.459Z,26.35
2023-04-08T23:38:12.780Z,26.05
2023-04-08T23:40:40.218Z,25.08
2023-04-08T23:43:07.594Z,25.38
2023-04-08T23:45:34.981Z,26.08
2023-04-08T23:48:02.408Z,26.83
2023-04-08T23:50:29.664Z,28.17
2023-04-08T23:52:56.861Z,26.83
2023-04-08T23:55:24.079Z,26.33
2023-04-08T23:57:53.659Z,26.88
